createdAt,value
2023-02-14T00:04:23.067Z,6.70
2023-02-14T00:09:27.111Z,6.80
2023-02-14T00:14:47.499Z,6.60
2023-02-14T00:19:50.449Z,6.50
2023-02-14T00:24:54.456Z,6.60
2023-02-14T00:30:01.866Z,6.50
2023-02-14T00:35:04.860Z,6.50
2023-02-14T00:40:10.024Z,6.50
2023-02-14T00:45:12.671Z,6.60
2023-02-14T00:50:15.483Z,6.60
2023-02-14T00:55:19.562Z,6.50
2023-02-14T01:00:23.024Z,6.40
2023-02-14T01:05:25.715Z,6.20
2023-02-14T01:10:29.732Z,6.10
2023-02-14T01:15:33.628Z,6.20
2023-02-14T01:20:36.824Z,6.30
2023-02-14T01:25:41.046Z,6.40
2023-02-14T01:30:43.737Z,6.40
2023-02-14T01:35:46.397Z,6.40
2023-02-14T01:40:51.002Z,6.40
2023-02-14T01:45:53.655Z,6.50
2023-02-14T01:50:57.017Z,6.40
2023-02-14T01:56:06.861Z,6.30
2023-02-14T02:01:09.682Z,6.30
2023-02-14T02:06:16.906Z,6.30
2023-02-14T02:11:20.892Z,6.30
2023-02-14T02:16:39.124Z,6.30
2023-02-14T02:22:20.141Z,6.20
2023-02-14T02:27:49.074Z,6.20
2023-02-14T02:33:29.282Z,6.20
2023-02-14T02:38:55.408Z,6.20
2023-02-14T02:44:07.583Z,6.40
2023-02-14T02:49:37.340Z,6.40
2023-02-14T02:54:45.572Z,6.30
2023-02-14T02:59:50.371Z,6.30
2023-02-14T03:04:57.798Z,6.40
2023-02-14T03:10:05.552Z,6.30
2023-02-14T03:15:17.221Z,6.30
2023-02-14T03:20:24.431Z,6.30
2023-02-14T03:25:42.519Z,6.20
2023-02-14T03:30:53.248Z,6.20
2023-02-14T03:36:01.967Z,6.20
2023-02-14T03:41:09.722Z,6.20
2023-02-14T03:46:17.385Z,6.20
2023-02-14T03:51:22.060Z,6.30
2023-02-14T03:56:35.554Z,6.20
2023-02-14T04:01:45.354Z,6.10
2023-02-14T04:06:48.365Z,6.10
2023-02-14T04:11:52.420Z,6.10
2023-02-14T04:23:08.909Z,6.10
2023-02-14T04:29:03.920Z,6.20
2023-02-14T04:45:44.931Z,6.20
2023-02-14T04:51:10.103Z,6.20
2023-02-14T04:56:42.988Z,6.20
2023-02-14T05:08:06.739Z,6.00
2023-02-14T05:13:41.918Z,6.10
2023-02-14T05:31:33.441Z,6.00
2023-02-14T05:43:26.038Z,6.00
2023-02-14T05:49:06.512Z,5.90
2023-02-14T05:54:28.354Z,5.90
2023-02-14T06:17:26.777Z,6.00
2023-02-14T06:35:18.544Z,6.00
2023-02-14T06:52:06.275Z,6.10
2023-02-14T07:03:16.081Z,6.30
2023-02-14T07:26:11.671Z,6.40
2023-02-14T07:37:45.621Z,6.50
2023-02-14T07:43:32.293Z,6.60
2023-02-14T07:49:12.155Z,6.80
2023-02-14T07:54:29.532Z,6.90
2023-02-14T07:59:38.527Z,7.00
2023-02-14T08:11:01.662Z,6.90
2023-02-14T08:16:15.818Z,6.90
2023-02-14T08:21:46.114Z,7.00
2023-02-14T08:27:01.742Z,7.00
2023-02-14T08:32:18.284Z,7.10
2023-02-14T08:38:17.951Z,7.20
2023-02-14T08:44:03.541Z,7.30
2023-02-14T08:49:38.577Z,7.40
2023-02-14T08:54:59.166Z,7.40
2023-02-14T09:00:35.077Z,7.50
2023-02-14T09:05:43.259Z,7.50
2023-02-14T09:10:55.251Z,7.50
2023-02-14T09:16:24.065Z,7.70
2023-02-14T09:21:35.788Z,8.00
2023-02-14T09:26:53.928Z,8.20
2023-02-14T09:32:10.880Z,8.20
2023-02-14T09:37:20.013Z,8.20
2023-02-14T09:42:51.203Z,8.40
2023-02-14T09:47:58.706Z,8.30
2023-02-14T09:53:10.004Z,8.20
2023-02-14T09:58:22.401Z,8.10
2023-02-14T10:04:08.293Z,7.90
2023-02-14T10:09:23.230Z,7.80
2023-02-14T10:14:29.606Z,7.90
2023-02-14T10:19:40.283Z,8.10
2023-02-14T10:24:47.022Z,8.20
2023-02-14T10:29:49.928Z,8.30
2023-02-14T10:34:57.498Z,8.50
2023-02-14T10:40:21.313Z,8.40
2023-02-14T10:45:32.143Z,8.10
2023-02-14T10:50:44.679Z,8.00
2023-02-14T10:55:52.013Z,8.00
2023-02-14T11:01:00.759Z,8.10
2023-02-14T11:06:05.063Z,7.80
2023-02-14T11:11:16.338Z,8.00
2023-02-14T11:16:31.863Z,8.10
2023-02-14T11:21:40.646Z,8.30
2023-02-14T11:26:52.909Z,8.60
2023-02-14T11:31:56.061Z,8.10
2023-02-14T11:37:00.933Z,8.10
2023-02-14T11:42:05.725Z,8.00
2023-02-14T11:47:21.283Z,7.90
2023-02-14T11:52:32.918Z,7.80
2023-02-14T11:57:39.197Z,7.70
2023-02-14T12:02:44.489Z,7.80
2023-02-14T12:07:50.618Z,8.00
2023-02-14T12:13:00.557Z,8.10
2023-02-14T12:18:29.930Z,8.00
2023-02-14T12:23:42.013Z,7.90
2023-02-14T12:28:49.064Z,8.40
2023-02-14T12:33:51.746Z,8.10
2023-02-14T12:39:06.147Z,8.00
2023-02-14T12:44:17.147Z,8.00
2023-02-14T12:49:35.715Z,8.00
2023-02-14T12:54:50.250Z,8.40
2023-02-14T12:59:58.852Z,8.80
2023-02-14T13:05:06.560Z,8.90
2023-02-14T13:10:24.630Z,8.60
2023-02-14T13:15:35.857Z,8.70
2023-02-14T13:20:49.503Z,9.20
2023-02-14T13:25:59.227Z,9.30
2023-02-14T13:31:02.712Z,8.80
2023-02-14T13:36:09.173Z,8.80
2023-02-14T13:41:14.886Z,8.60
2023-02-14T13:46:20.356Z,9.20
2023-02-14T13:51:23.423Z,9.30
2023-02-14T13:56:35.848Z,8.90
2023-02-14T14:01:42.130Z,9.00
2023-02-14T14:07:20.960Z,9.20
2023-02-14T14:12:44.644Z,9.30
2023-02-14T14:18:23.687Z,9.00
2023-02-14T14:23:34.334Z,9.00
2023-02-14T14:28:38.410Z,9.30
2023-02-14T14:33:41.088Z,9.10
2023-02-14T14:38:49.232Z,8.90
2023-02-14T14:43:53.682Z,8.60
2023-02-14T14:48:57.653Z,8.60
2023-02-14T14:54:03.442Z,8.50
2023-02-14T14:59:27.221Z,8.00
2023-02-14T15:04:32.055Z,7.80
2023-02-14T15:09:35.820Z,7.70
2023-02-14T15:14:43.062Z,7.80
2023-02-14T15:19:50.828Z,8.20
2023-02-14T15:24:54.194Z,8.70
2023-02-14T15:30:00.454Z,11.00
2023-02-14T15:35:06.087Z,11.90
2023-02-14T15:40:16.857Z,11.50
2023-02-14T15:45:25.435Z,11.10
2023-02-14T15:50:30.307Z,10.20
2023-02-14T15:55:34.339Z,8.80
2023-02-14T16:00:38.578Z,7.70
2023-02-14T16:05:48.088Z,7.10
2023-02-14T16:11:01.308Z,6.60
2023-02-14T16:16:07.350Z,6.20
2023-02-14T16:21:28.621Z,6.00
2023-02-14T16:26:31.890Z,5.80
2023-02-14T16:32:06.208Z,5.40
2023-02-14T16:37:18.032Z,5.10
2023-02-14T16:42:21.035Z,5.00
2023-02-14T16:47:27.703Z,4.80
2023-02-14T16:52:30.741Z,4.60
2023-02-14T16:57:38.045Z,4.50
2023-02-14T17:02:44.153Z,4.50
2023-02-14T17:07:47.061Z,4.30
2023-02-14T17:12:50.596Z,4.30
2023-02-14T17:17:57.912Z,4.20
2023-02-14T17:23:00.710Z,4.00
2023-02-14T17:28:03.390Z,4.10
2023-02-14T17:33:07.493Z,3.90
2023-02-14T17:38:10.240Z,3.80
2023-02-14T17:43:12.933Z,3.90
2023-02-14T17:48:16.885Z,4.10
2023-02-14T17:53:19.558Z,4.10
2023-02-14T17:58:22.207Z,4.10
2023-02-14T18:03:26.239Z,4.00
2023-02-14T18:08:29.662Z,3.90
2023-02-14T18:13:33.392Z,3.90
2023-02-14T18:18:38.101Z,3.80
2023-02-14T18:23:41.078Z,3.70
2023-02-14T18:28:44.088Z,3.70
2023-02-14T18:33:50.011Z,3.60
2023-02-14T18:38:54.712Z,3.50
2023-02-14T18:43:57.446Z,3.40
2023-02-14T18:49:01.449Z,3.30
2023-02-14T18:54:05.365Z,3.40
2023-02-14T21:57:10.287Z,2.60
2023-02-14T22:02:13.673Z,2.60
2023-02-14T22:07:16.872Z,2.70
2023-02-14T22:12:30.867Z,2.80
2023-02-14T22:17:45.424Z,2.90
2023-02-14T22:22:58.565Z,3.00
2023-02-14T22:28:06.388Z,2.90
2023-02-14T22:33:09.944Z,3.00
2023-02-14T22:38:21.706Z,3.00
2023-02-14T22:43:39.210Z,2.90
2023-02-14T22:48:46.255Z,2.90
2023-02-14T22:54:02.687Z,3.00
2023-02-14T22:59:29.603Z,2.90
2023-02-14T23:04:38.498Z,2.90
2023-02-14T23:09:47.971Z,3.00
2023-02-14T23:15:11.541Z,3.00
2023-02-14T23:20:34.484Z,2.90
2023-02-14T23:25:45.786Z,2.90
2023-02-14T23:30:54.556Z,2.90
2023-02-14T23:36:06.249Z,2.80
2023-02-14T23:41:30.052Z,3.00
2023-02-14T23:46:40.559Z,2.80
2023-02-14T23:51:46.418Z,2.70
2023-02-14T23:56:59.794Z,2.70
